createdAt,value
2023-05-25T00:01:36.617Z,47.36
2023-05-25T00:04:04.585Z,47.33
2023-05-25T00:06:32.805Z,47.00
2023-05-25T00:08:59.419Z,47.57
2023-05-25T00:11:26.695Z,47.24
2023-05-25T00:13:53.533Z,47.17
2023-05-25T00:16:20.631Z,47.49
2023-05-25T00:18:48.744Z,47.34
2023-05-25T00:21:16.238Z,47.56
2023-05-25T00:23:43.372Z,47.41
2023-05-25T00:26:10.000Z,47.39
2023-05-25T00:28:36.597Z,47.11
2023-05-25T00:31:03.241Z,47.08
2023-05-25T00:33:30.151Z,47.22
2023-05-25T00:35:57.402Z,47.30
2023-05-25T00:38:24.055Z,47.19
2023-05-25T00:40:56.273Z,47.21
2023-05-25T00:43:23.334Z,47.35
2023-05-25T00:45:51.733Z,47.38
2023-05-25T00:48:18.985Z,47.52
2023-05-25T00:50:45.993Z,47.82
2023-05-25T00:53:13.922Z,47.70
2023-05-25T00:56:14.162Z,47.78
2023-05-25T00:58:42.829Z,47.84
2023-05-25T01:01:12.850Z,47.22
2023-05-25T01:03:45.758Z,47.66
2023-05-25T01:06:15.941Z,47.65
2023-05-25T01:08:47.782Z,47.37
2023-05-25T01:11:16.277Z,47.39
2023-05-25T01:13:43.281Z,47.80
2023-05-25T01:16:11.907Z,47.84
2023-05-25T01:18:41.898Z,47.51
2023-05-25T01:21:15.029Z,47.94
2023-05-25T01:24:17.621Z,47.71
2023-05-25T01:26:53.722Z,47.82
2023-05-25T01:29:22.345Z,47.92
2023-05-25T01:31:50.472Z,47.85
2023-05-25T01:34:17.413Z,48.04
2023-05-25T01:36:44.072Z,47.91
2023-05-25T01:39:11.170Z,47.41
2023-05-25T01:41:37.748Z,47.51
2023-05-25T01:44:07.485Z,47.96
2023-05-25T01:46:39.647Z,47.49
2023-05-25T01:49:19.827Z,47.52
2023-05-25T01:52:07.946Z,48.09
2023-05-25T01:54:41.016Z,47.80
2023-05-25T01:57:12.581Z,47.73
2023-05-25T01:59:43.416Z,48.09
2023-05-25T02:02:12.513Z,47.57
2023-05-25T02:04:39.170Z,47.71
2023-05-25T02:07:06.190Z,47.79
2023-05-25T02:09:32.923Z,47.56
2023-05-25T02:11:59.509Z,47.51
2023-05-25T02:14:26.110Z,48.11
2023-05-25T02:16:52.694Z,47.84
2023-05-25T02:19:19.293Z,47.64
2023-05-25T02:21:46.348Z,47.93
2023-05-25T02:24:12.917Z,48.07
2023-05-25T02:26:39.722Z,48.14
2023-05-25T02:29:06.710Z,47.64
2023-05-25T02:31:33.490Z,47.86
2023-05-25T02:34:00.191Z,47.89
2023-05-25T02:36:27.169Z,48.09
2023-05-25T02:38:53.960Z,47.81
2023-05-25T02:41:21.395Z,47.70
2023-05-25T02:43:48.054Z,47.49
2023-05-25T02:46:14.719Z,47.60
2023-05-25T02:48:42.092Z,47.82
2023-05-25T02:51:08.702Z,47.70
2023-05-25T02:53:35.496Z,47.85
2023-05-25T02:56:03.934Z,47.83
2023-05-25T02:58:31.038Z,48.00
2023-05-25T03:01:00.244Z,47.87
2023-05-25T03:03:27.767Z,48.04
2023-05-25T03:05:55.148Z,47.90
2023-05-25T03:08:21.792Z,47.95
2023-05-25T03:10:48.686Z,48.30
2023-05-25T03:13:15.529Z,47.83
2023-05-25T03:15:42.162Z,47.93
2023-05-25T03:18:08.843Z,47.82
2023-05-25T03:20:35.502Z,47.62
2023-05-25T03:23:02.560Z,48.16
2023-05-25T03:25:29.173Z,47.85
2023-05-25T03:27:55.798Z,47.97
2023-05-25T03:30:23.332Z,47.53
2023-05-25T03:32:49.938Z,48.02
2023-05-25T03:35:16.654Z,48.01
2023-05-25T03:37:43.195Z,47.65
2023-05-25T03:40:11.501Z,48.03
2023-05-25T03:42:38.496Z,47.98
2023-05-25T03:45:06.214Z,47.86
2023-05-25T03:47:33.050Z,47.69
2023-05-25T03:49:59.718Z,48.02
2023-05-25T03:52:26.309Z,48.24
2023-05-25T03:54:52.864Z,48.18
2023-05-25T03:57:19.402Z,48.24
2023-05-25T03:59:46.918Z,48.00
2023-05-25T04:02:13.530Z,47.63
2023-05-25T04:04:41.829Z,47.66
2023-05-25T04:07:08.578Z,48.16
2023-05-25T04:09:35.118Z,47.80
2023-05-25T04:12:02.349Z,47.63
2023-05-25T04:14:28.977Z,47.68
2023-05-25T04:16:55.759Z,47.86
2023-05-25T04:19:22.307Z,47.92
2023-05-25T04:21:48.858Z,47.38
2023-05-25T04:24:15.434Z,47.62
2023-05-25T04:26:42.021Z,47.82
2023-05-25T04:29:10.036Z,47.95
2023-05-25T04:31:36.867Z,48.00
2023-05-25T04:34:03.817Z,48.09
2023-05-25T04:36:32.657Z,47.79
2023-05-25T04:39:03.069Z,48.02
2023-05-25T04:41:33.908Z,48.04
2023-05-25T04:44:07.985Z,47.87
2023-05-25T04:46:40.773Z,47.75
2023-05-25T04:49:10.459Z,47.74
2023-05-25T04:51:37.452Z,47.91
2023-05-25T04:54:04.090Z,47.44
2023-05-25T04:56:31.154Z,48.02
2023-05-25T04:58:57.794Z,47.50
2023-05-25T05:01:26.414Z,47.32
2023-05-25T05:03:53.200Z,47.60
2023-05-25T05:06:19.918Z,47.57
2023-05-25T05:08:46.475Z,47.95
2023-05-25T05:11:13.085Z,47.52
2023-05-25T05:13:39.616Z,48.02
2023-05-25T05:16:06.575Z,47.66
2023-05-25T05:18:33.179Z,47.65
2023-05-25T05:20:59.924Z,47.86
2023-05-25T05:23:26.742Z,47.23
2023-05-25T05:25:53.318Z,47.70
2023-05-25T05:28:19.913Z,47.47
2023-05-25T05:30:47.377Z,47.16
2023-05-25T05:33:14.448Z,47.41
2023-05-25T05:35:41.200Z,47.08
2023-05-25T05:38:07.803Z,47.29
2023-05-25T05:40:34.379Z,47.66
2023-05-25T05:43:01.167Z,47.18
2023-05-25T05:45:27.762Z,47.21
2023-05-25T05:47:54.430Z,47.01
2023-05-25T05:50:21.197Z,46.97
2023-05-25T05:52:48.261Z,46.92
2023-05-25T05:55:14.831Z,47.01
2023-05-25T05:57:41.564Z,46.93
2023-05-25T06:00:09.122Z,46.97
2023-05-25T06:02:35.959Z,47.25
2023-05-25T06:05:02.862Z,47.01
2023-05-25T06:07:30.862Z,46.51
2023-05-25T06:09:57.673Z,46.75
2023-05-25T06:12:24.292Z,46.80
2023-05-25T06:14:52.172Z,46.88
2023-05-25T06:17:19.174Z,46.72
2023-05-25T06:19:46.084Z,46.90
2023-05-25T06:22:12.656Z,46.56
2023-05-25T06:24:39.206Z,47.08
2023-05-25T06:27:05.825Z,46.91
2023-05-25T06:29:32.447Z,47.19
2023-05-25T06:31:59.094Z,47.08
2023-05-25T06:34:26.022Z,46.83
2023-05-25T06:36:53.045Z,46.86
2023-05-25T06:39:20.281Z,46.79
2023-05-25T06:41:46.873Z,46.82
2023-05-25T06:44:13.520Z,46.93
2023-05-25T06:46:40.129Z,46.65
2023-05-25T06:49:06.875Z,46.52
2023-05-25T06:51:33.667Z,46.77
2023-05-25T06:54:00.242Z,46.86
2023-05-25T06:56:27.957Z,46.79
2023-05-25T06:58:54.592Z,46.79
2023-05-25T07:01:21.325Z,46.73
2023-05-25T07:03:47.945Z,46.58
2023-05-25T07:06:15.246Z,46.61
2023-05-25T07:08:41.812Z,46.66
2023-05-25T07:11:10.698Z,46.76
2023-05-25T07:13:37.328Z,46.78
2023-05-25T07:16:03.939Z,46.79
2023-05-25T07:18:30.773Z,46.55
2023-05-25T07:20:57.312Z,46.63
2023-05-25T07:23:23.863Z,46.78
2023-05-25T07:25:50.524Z,46.62
2023-05-25T07:28:17.105Z,46.76
2023-05-25T07:30:43.723Z,46.80
2023-05-25T07:33:10.428Z,46.55
2023-05-25T07:35:37.018Z,46.86
2023-05-25T07:38:06.987Z,46.69
2023-05-25T07:40:33.585Z,46.54
2023-05-25T07:43:00.280Z,46.58
2023-05-25T07:45:26.900Z,46.17
2023-05-25T07:47:53.494Z,46.40
2023-05-25T07:50:20.188Z,46.56
2023-05-25T07:52:46.756Z,46.43
2023-05-25T07:55:13.609Z,46.53
2023-05-25T07:57:40.222Z,46.46
2023-05-25T08:00:11.123Z,46.45
2023-05-25T08:02:37.881Z,46.28
2023-05-25T08:05:06.171Z,46.56
2023-05-25T08:07:33.648Z,46.35
2023-05-25T08:10:00.572Z,46.09
2023-05-25T08:12:46.169Z,46.02
2023-05-25T08:15:14.047Z,45.94
2023-05-25T08:17:41.667Z,45.96
2023-05-25T08:20:09.227Z,45.81
2023-05-25T08:22:36.337Z,45.71
2023-05-25T08:25:04.558Z,45.79
2023-05-25T08:27:32.785Z,45.82
2023-05-25T08:30:01.650Z,45.91
2023-05-25T08:32:28.292Z,45.95
2023-05-25T08:34:54.941Z,46.29
2023-05-25T08:37:23.638Z,45.96
2023-05-25T08:39:50.565Z,46.06
2023-05-25T08:42:17.163Z,46.25
2023-05-25T08:44:43.915Z,45.94
2023-05-25T08:47:12.481Z,46.36
2023-05-25T08:49:39.597Z,46.08
2023-05-25T08:52:10.966Z,45.94
2023-05-25T08:54:38.005Z,46.29
2023-05-25T08:57:17.203Z,46.05
2023-05-25T08:59:58.786Z,46.03
2023-05-25T09:02:39.449Z,45.92
2023-05-25T09:05:06.886Z,46.09
2023-05-25T09:07:34.241Z,46.05
2023-05-25T09:10:01.629Z,45.95
2023-05-25T09:12:31.883Z,46.10
2023-05-25T09:14:59.214Z,45.81
2023-05-25T09:17:26.806Z,45.86
2023-05-25T09:19:53.480Z,45.64
2023-05-25T09:22:20.062Z,45.89
2023-05-25T09:24:47.206Z,45.80
2023-05-25T09:27:23.732Z,45.72
2023-05-25T09:29:51.275Z,45.65
2023-05-25T09:32:18.986Z,45.67
2023-05-25T09:34:47.147Z,45.64
2023-05-25T09:37:19.437Z,45.63
2023-05-25T09:39:47.655Z,45.88
2023-05-25T09:42:14.452Z,45.82
2023-05-25T09:44:42.763Z,46.02
2023-05-25T09:47:09.951Z,45.92
2023-05-25T09:49:36.565Z,45.89
2023-05-25T09:52:03.328Z,46.00
2023-05-25T09:54:30.123Z,45.98
2023-05-25T09:56:56.741Z,46.10
2023-05-25T09:59:23.647Z,45.98
2023-05-25T10:01:53.797Z,46.03
2023-05-25T10:04:20.975Z,45.69
2023-05-25T10:06:50.028Z,45.72
2023-05-25T10:09:19.619Z,45.70
2023-05-25T10:11:46.557Z,45.74
2023-05-25T10:14:17.955Z,45.83
2023-05-25T10:16:49.977Z,45.44
2023-05-25T10:19:24.430Z,45.77
2023-05-25T10:22:19.386Z,45.68
2023-05-25T10:24:57.252Z,45.74
2023-05-25T10:27:39.256Z,45.85
2023-05-25T10:30:10.007Z,45.90
2023-05-25T10:32:41.036Z,45.56
2023-05-25T10:35:09.067Z,45.73
2023-05-25T10:37:37.181Z,45.63
2023-05-25T10:40:08.562Z,45.58
2023-05-25T10:42:37.469Z,45.66
2023-05-25T10:45:08.688Z,45.43
2023-05-25T10:47:38.117Z,45.69
2023-05-25T10:50:05.174Z,45.54
2023-05-25T10:52:32.568Z,45.65
2023-05-25T10:55:04.289Z,45.80
2023-05-25T10:57:31.193Z,45.65
2023-05-25T11:00:10.271Z,45.77
2023-05-25T11:02:55.985Z,45.72
2023-05-25T11:05:34.765Z,45.67
2023-05-25T11:08:09.251Z,45.76
2023-05-25T11:10:53.136Z,45.67
2023-05-25T11:13:31.805Z,45.56
2023-05-25T11:16:14.364Z,45.50
2023-05-25T11:18:42.144Z,45.66
2023-05-25T11:21:25.026Z,45.44
2023-05-25T11:23:56.364Z,45.44
2023-05-25T11:26:30.950Z,45.51
2023-05-25T11:29:01.952Z,45.35
2023-05-25T11:31:36.023Z,45.44
2023-05-25T11:34:06.140Z,45.53
2023-05-25T11:36:35.420Z,45.90
2023-05-25T11:39:16.951Z,45.25
2023-05-25T11:41:50.072Z,45.86
2023-05-25T11:44:36.289Z,45.43
2023-05-25T11:47:08.858Z,45.56
2023-05-25T11:49:46.098Z,45.55
2023-05-25T11:52:15.418Z,45.56
2023-05-25T11:54:42.296Z,45.36
2023-05-25T11:57:16.710Z,45.42
2023-05-25T11:59:54.712Z,45.63
2023-05-25T12:02:23.346Z,45.66
2023-05-25T12:04:58.443Z,45.60
2023-05-25T12:07:27.092Z,45.79
2023-05-25T12:10:07.921Z,45.28
2023-05-25T12:12:41.221Z,45.62
2023-05-25T12:15:10.632Z,45.51
2023-05-25T12:17:38.486Z,45.56
2023-05-25T12:20:07.611Z,45.27
2023-05-25T12:22:34.583Z,45.53
2023-05-25T12:25:01.270Z,45.57
2023-05-25T12:27:27.855Z,45.29
2023-05-25T12:29:59.074Z,45.48
2023-05-25T12:32:25.879Z,45.28
2023-05-25T12:35:02.085Z,45.50
2023-05-25T12:37:28.819Z,45.64
2023-05-25T12:39:55.739Z,45.51
2023-05-25T12:42:23.234Z,45.45
2023-05-25T12:44:55.510Z,45.45
2023-05-25T12:47:23.580Z,45.47
2023-05-25T12:49:52.093Z,45.62
2023-05-25T12:52:38.721Z,45.35
2023-05-25T12:55:27.312Z,45.21
2023-05-25T12:58:04.802Z,45.42
2023-05-25T13:00:33.044Z,45.47
2023-05-25T13:03:00.309Z,45.32
2023-05-25T13:05:29.506Z,45.28
2023-05-25T13:07:58.205Z,45.24
2023-05-25T13:10:25.718Z,45.71
2023-05-25T13:12:55.553Z,45.10
2023-05-25T13:15:22.273Z,45.32
2023-05-25T13:17:50.784Z,45.31
2023-05-25T13:20:19.721Z,45.05
2023-05-25T13:22:48.600Z,45.45
2023-05-25T13:25:15.330Z,44.98
2023-05-25T13:27:46.228Z,44.93
2023-05-25T13:30:13.722Z,45.29
2023-05-25T13:32:41.853Z,45.36
2023-05-25T13:35:09.309Z,45.31
2023-05-25T13:37:35.939Z,45.52
2023-05-25T13:40:03.195Z,45.08
2023-05-25T13:42:29.754Z,45.20
2023-05-25T13:44:56.332Z,45.02
2023-05-25T13:47:23.123Z,45.49
2023-05-25T13:49:49.870Z,45.24
2023-05-25T13:52:16.557Z,45.38
2023-05-25T13:54:43.174Z,45.13
2023-05-25T13:57:09.972Z,45.45
2023-05-25T13:59:37.611Z,45.59
2023-05-25T14:02:04.526Z,45.72
2023-05-25T14:04:31.106Z,45.32
2023-05-25T14:06:57.716Z,45.33
2023-05-25T14:09:24.299Z,45.28
2023-05-25T14:11:53.632Z,45.34
2023-05-25T14:14:30.585Z,45.22
2023-05-25T14:16:59.846Z,45.24
2023-05-25T14:19:26.488Z,45.37
2023-05-25T14:22:08.124Z,45.00
2023-05-25T14:24:39.632Z,45.06
2023-05-25T14:27:07.327Z,45.20
2023-05-25T14:29:34.651Z,45.06
2023-05-25T14:32:01.587Z,45.32
2023-05-25T14:34:29.642Z,45.21
2023-05-25T14:36:56.310Z,45.32
2023-05-25T14:39:22.950Z,45.28
2023-05-25T14:41:49.558Z,44.82
2023-05-25T14:44:16.628Z,45.33
2023-05-25T14:46:43.383Z,45.26
2023-05-25T14:49:10.247Z,45.23
2023-05-25T14:51:37.910Z,44.89
2023-05-25T14:54:06.381Z,45.00
2023-05-25T14:56:33.355Z,45.36
2023-05-25T14:59:00.089Z,45.54
2023-05-25T15:01:29.155Z,44.72
2023-05-25T15:03:55.982Z,45.72
2023-05-25T15:06:22.693Z,45.31
2023-05-25T15:08:49.231Z,45.34
2023-05-25T15:11:15.841Z,45.31
2023-05-25T15:13:42.435Z,45.66
2023-05-25T15:16:12.791Z,45.04
2023-05-25T15:18:39.526Z,45.26
2023-05-25T15:21:06.297Z,45.30
2023-05-25T15:23:32.877Z,45.02
2023-05-25T15:26:04.531Z,45.10
2023-05-25T15:28:31.651Z,45.19
2023-05-25T15:30:59.956Z,45.09
2023-05-25T15:33:43.554Z,44.89
2023-05-25T15:36:15.174Z,45.21
2023-05-25T15:38:43.293Z,44.95
2023-05-25T15:41:10.293Z,45.10
2023-05-25T15:43:36.921Z,44.85
2023-05-25T15:46:03.482Z,45.21
2023-05-25T15:48:30.096Z,45.20
2023-05-25T15:50:56.693Z,44.77
2023-05-25T15:53:23.286Z,45.22
2023-05-25T15:55:49.870Z,45.16
2023-05-25T15:58:17.780Z,45.12
2023-05-25T16:00:44.344Z,44.88
2023-05-25T16:03:11.001Z,45.22
2023-05-25T16:05:37.590Z,45.31
2023-05-25T16:08:04.162Z,44.91
2023-05-25T16:10:30.768Z,44.89
2023-05-25T16:12:57.311Z,45.24
2023-05-25T16:15:24.194Z,45.28
2023-05-25T16:17:50.866Z,44.85
2023-05-25T16:20:17.686Z,44.80
2023-05-25T16:22:44.285Z,45.02
2023-05-25T16:25:10.938Z,44.94
2023-05-25T16:27:37.565Z,44.88
2023-05-25T16:30:04.648Z,45.05
2023-05-25T16:32:32.751Z,44.95
2023-05-25T16:34:59.591Z,44.71
2023-05-25T16:37:26.204Z,45.15
2023-05-25T16:39:52.850Z,44.86
2023-05-25T16:42:19.630Z,44.98
2023-05-25T16:44:46.177Z,45.34
2023-05-25T16:47:12.750Z,44.96
2023-05-25T16:49:39.311Z,45.13
2023-05-25T16:52:05.951Z,45.00
2023-05-25T16:54:32.534Z,44.89
2023-05-25T16:56:59.139Z,44.89
2023-05-25T16:59:25.746Z,45.01
2023-05-25T17:01:52.462Z,45.50
2023-05-25T17:04:19.103Z,45.11
2023-05-25T17:06:45.647Z,45.37
2023-05-25T17:09:12.269Z,45.14
2023-05-25T17:11:38.854Z,45.51
2023-05-25T17:14:05.915Z,45.77
2023-05-25T17:16:32.570Z,45.00
2023-05-25T17:18:59.218Z,45.19
2023-05-25T17:21:25.780Z,45.32
2023-05-25T17:23:52.379Z,45.26
2023-05-25T17:26:18.926Z,45.49
2023-05-25T17:28:45.475Z,45.40
2023-05-25T17:31:12.076Z,45.63
2023-05-25T17:33:39.155Z,45.26
2023-05-25T17:36:06.192Z,45.53
2023-05-25T17:38:35.012Z,45.46
2023-05-25T17:41:01.582Z,45.00
2023-05-25T17:43:28.264Z,45.57
2023-05-25T17:45:54.971Z,45.50
2023-05-25T17:48:21.660Z,45.29
2023-05-25T17:50:48.311Z,45.67
2023-05-25T17:53:14.929Z,45.59
2023-05-25T17:55:41.568Z,45.47
2023-05-25T17:58:08.204Z,45.57
2023-05-25T18:00:34.832Z,45.53
2023-05-25T18:03:01.597Z,45.29
2023-05-25T18:05:28.298Z,45.51
2023-05-25T18:07:54.865Z,45.26
2023-05-25T18:10:21.486Z,45.68
2023-05-25T18:12:49.362Z,45.34
2023-05-25T18:15:16.050Z,45.82
2023-05-25T18:17:42.662Z,45.49
2023-05-25T18:20:09.976Z,45.94
2023-05-25T18:22:37.020Z,45.47
2023-05-25T18:25:04.601Z,45.63
2023-05-25T18:27:31.236Z,45.45
2023-05-25T18:29:58.927Z,45.42
2023-05-25T18:32:25.536Z,45.45
2023-05-25T18:34:52.100Z,45.48
2023-05-25T18:37:18.814Z,46.01
2023-05-25T18:39:45.456Z,45.89
2023-05-25T18:42:12.103Z,45.32
2023-05-25T18:44:38.718Z,45.43
2023-05-25T18:47:05.687Z,45.30
2023-05-25T18:49:34.518Z,45.31
2023-05-25T18:52:01.611Z,45.30
2023-05-25T18:54:28.311Z,45.13
2023-05-25T18:56:54.915Z,45.13
2023-05-25T18:59:21.529Z,45.07
2023-05-25T19:01:48.168Z,45.44
2023-05-25T19:04:14.846Z,45.18
2023-05-25T19:06:41.526Z,45.38
2023-05-25T19:09:08.107Z,45.31
2023-05-25T19:11:34.735Z,45.67
2023-05-25T19:14:01.301Z,45.36
2023-05-25T19:16:27.978Z,45.28
2023-05-25T19:18:54.690Z,45.33
2023-05-25T19:21:21.230Z,45.28
2023-05-25T19:23:47.860Z,45.36
2023-05-25T19:26:14.574Z,45.02
2023-05-25T19:28:41.103Z,45.42
2023-05-25T19:31:07.677Z,45.42
2023-05-25T19:33:34.394Z,45.46
2023-05-25T19:36:01.124Z,45.21
2023-05-25T19:38:34.294Z,45.24
2023-05-25T19:41:07.318Z,45.69
2023-05-25T19:43:34.083Z,45.21
2023-05-25T19:46:00.714Z,45.45
2023-05-25T19:48:27.487Z,45.58
2023-05-25T19:50:54.115Z,45.70
2023-05-25T19:53:20.740Z,45.99
2023-05-25T19:55:47.365Z,46.03
2023-05-25T19:58:13.977Z,45.81
2023-05-25T20:00:40.661Z,46.03
2023-05-25T20:03:07.312Z,45.71
2023-05-25T20:05:34.004Z,46.14
2023-05-25T20:08:00.654Z,46.13
2023-05-25T20:10:27.212Z,45.95
2023-05-25T20:12:53.915Z,46.32
2023-05-25T20:15:20.569Z,46.56
2023-05-25T20:17:47.148Z,46.13
2023-05-25T20:20:13.850Z,46.38
2023-05-25T20:22:41.041Z,46.45
2023-05-25T20:25:07.818Z,46.30
2023-05-25T20:27:34.477Z,46.23
2023-05-25T20:30:01.371Z,46.58
2023-05-25T20:32:27.974Z,46.50
2023-05-25T20:34:54.549Z,46.59
2023-05-25T20:37:21.185Z,46.84
2023-05-25T20:39:47.773Z,46.56
2023-05-25T20:42:14.476Z,46.35
2023-05-25T20:44:41.351Z,46.60
2023-05-25T20:47:08.061Z,46.72
2023-05-25T20:49:34.773Z,46.65
2023-05-25T20:52:01.544Z,46.53
2023-05-25T20:54:28.137Z,46.93
2023-05-25T20:56:54.801Z,47.30
2023-05-25T20:59:22.105Z,47.08
2023-05-25T21:01:48.895Z,46.61
2023-05-25T21:04:15.742Z,46.95
2023-05-25T21:06:42.500Z,46.94
2023-05-25T21:09:09.123Z,46.69
2023-05-25T21:11:36.024Z,46.88
2023-05-25T21:14:03.272Z,46.93
2023-05-25T21:16:29.942Z,46.98
2023-05-25T21:18:56.618Z,47.27
2023-05-25T21:21:23.291Z,46.85
2023-05-25T21:23:49.891Z,47.13
2023-05-25T21:26:16.515Z,47.21
2023-05-25T21:28:43.092Z,47.05
2023-05-25T21:31:09.838Z,47.23
2023-05-25T21:33:37.663Z,47.17
2023-05-25T21:36:04.323Z,47.14
2023-05-25T21:38:30.893Z,47.25
2023-05-25T21:40:58.741Z,47.53
2023-05-25T21:43:27.195Z,47.17
2023-05-25T21:45:53.905Z,47.47
2023-05-25T21:48:21.154Z,47.33
2023-05-25T21:50:49.966Z,47.74
2023-05-25T21:53:16.616Z,47.45
2023-05-25T21:55:43.488Z,47.42
2023-05-25T21:58:10.404Z,47.54
2023-05-25T22:00:37.199Z,47.52
2023-05-25T22:03:04.101Z,47.41
2023-05-25T22:05:34.338Z,47.61
2023-05-25T22:08:02.582Z,47.64
2023-05-25T22:10:29.207Z,47.63
2023-05-25T22:12:56.244Z,47.47
2023-05-25T22:15:26.099Z,47.55
2023-05-25T22:17:52.891Z,47.53
2023-05-25T22:20:19.797Z,47.48
2023-05-25T22:22:46.459Z,47.62
2023-05-25T22:25:13.444Z,47.73
2023-05-25T22:27:40.428Z,47.72
2023-05-25T22:30:07.540Z,47.60
2023-05-25T22:32:34.163Z,47.70
2023-05-25T22:35:01.428Z,47.67
2023-05-25T22:37:27.975Z,47.66
2023-05-25T22:39:54.562Z,47.63
2023-05-25T22:42:21.774Z,47.53
2023-05-25T22:44:49.348Z,47.78
2023-05-25T22:47:17.697Z,47.60
2023-05-25T22:49:44.616Z,47.68
2023-05-25T22:52:11.629Z,47.59
2023-05-25T22:54:38.311Z,48.07
2023-05-25T22:57:05.651Z,47.98
2023-05-25T22:59:32.337Z,47.68
2023-05-25T23:01:58.960Z,47.83
2023-05-25T23:04:25.542Z,48.17
2023-05-25T23:06:52.189Z,48.24
2023-05-25T23:09:18.770Z,48.10
2023-05-25T23:11:45.363Z,47.65
2023-05-25T23:14:12.015Z,47.73
2023-05-25T23:16:38.689Z,48.29
2023-05-25T23:19:06.242Z,47.92
2023-05-25T23:21:33.644Z,48.36
2023-05-25T23:24:00.419Z,48.17
2023-05-25T23:26:27.016Z,48.73
2023-05-25T23:28:53.706Z,48.41
2023-05-25T23:31:20.466Z,48.35
2023-05-25T23:33:47.065Z,47.89
2023-05-25T23:36:14.061Z,48.19
2023-05-25T23:38:41.109Z,48.06
2023-05-25T23:41:08.240Z,48.22
2023-05-25T23:43:34.796Z,48.59
2023-05-25T23:46:02.397Z,48.49
2023-05-25T23:48:29.053Z,48.32
2023-05-25T23:50:55.833Z,48.32
2023-05-25T23:53:22.493Z,48.68
2023-05-25T23:55:49.229Z,48.16
2023-05-25T23:58:15.849Z,48.64
